sensor_id;sensor_type;location;lat;lon;timestamp;temperature;humidity
27492;DHT22;14927;51.210;6.838;2023-04-01T00:00:48;14.50;65.70
27492;DHT22;14927;51.210;6.838;2023-04-01T00:03:34;14.50;65.80
27492;DHT22;14927;51.210;6.838;2023-04-01T00:06:21;14.50;66.00
27492;DHT22;14927;51.210;6.838;2023-04-01T00:09:06;14.50;65.80
27492;DHT22;14927;51.210;6.838;2023-04-01T00:11:51;14.50;66.00
27492;DHT22;14927;51.210;6.838;2023-04-01T00:14:36;14.50;66.10
27492;DHT22;14927;51.210;6.838;2023-04-01T00:17:21;14.50;66.10
27492;DHT22;14927;51.210;6.838;2023-04-01T00:20:08;14.50;66.30
27492;DHT22;14927;51.210;6.838;2023-04-01T00:25:28;14.40;66.20
27492;DHT22;14927;51.210;6.838;2023-04-01T00:28:14;14.40;66.40
27492;DHT22;14927;51.210;6.838;2023-04-01T00:31:06;14.40;66.30
27492;DHT22;14927;51.210;6.838;2023-04-01T00:33:51;14.40;66.20
27492;DHT22;14927;51.210;6.838;2023-04-01T00:36:36;14.40;66.10
27492;DHT22;14927;51.210;6.838;2023-04-01T00:39:22;14.40;66.90
27492;DHT22;14927;51.210;6.838;2023-04-01T00:42:09;14.50;66.40
27492;DHT22;14927;51.210;6.838;2023-04-01T00:44:55;14.40;66.20
27492;DHT22;14927;51.210;6.838;2023-04-01T00:47:40;14.40;66.10
27492;DHT22;14927;51.210;6.838;2023-04-01T00:50:27;14.40;65.80
27492;DHT22;14927;51.210;6.838;2023-04-01T00:53:13;14.40;65.90
27492;DHT22;14927;51.210;6.838;2023-04-01T00:56:07;14.40;65.70
27492;DHT22;14927;51.210;6.838;2023-04-01T00:59:02;14.40;65.90
27492;DHT22;14927;51.210;6.838;2023-04-01T01:01:52;14.40;65.90
27492;DHT22;14927;51.210;6.838;2023-04-01T01:04:38;14.40;65.80
27492;DHT22;14927;51.210;6.838;2023-04-01T01:07:42;14.40;65.80
27492;DHT22;14927;51.210;6.838;2023-04-01T01:10:35;14.40;66.10
27492;DHT22;14927;51.210;6.838;2023-04-01T01:13:53;14.40;65.70
27492;DHT22;14927;51.210;6.838;2023-04-01T01:17:42;14.40;66.10
27492;DHT22;14927;51.210;6.838;2023-04-01T01:23:48;14.40;65.70
27492;DHT22;14927;51.210;6.838;2023-04-01T01:27:03;14.30;66.20
27492;DHT22;14927;51.210;6.838;2023-04-01T01:33:32;14.40;66.20
27492;DHT22;14927;51.210;6.838;2023-04-01T01:36:31;14.40;65.90
27492;DHT22;14927;51.210;6.838;2023-04-01T01:39:19;14.40;65.70
27492;DHT22;14927;51.210;6.838;2023-04-01T01:42:13;14.40;66.10
27492;DHT22;14927;51.210;6.838;2023-04-01T01:45:01;14.40;66.30
27492;DHT22;14927;51.210;6.838;2023-04-01T01:47:49;14.30;66.30
27492;DHT22;14927;51.210;6.838;2023-04-01T01:50:35;14.30;66.40
27492;DHT22;14927;51.210;6.838;2023-04-01T01:53:20;14.30;66.40
27492;DHT22;14927;51.210;6.838;2023-04-01T01:56:05;14.30;66.40
27492;DHT22;14927;51.210;6.838;2023-04-01T01:58:54;14.30;66.40
27492;DHT22;14927;51.210;6.838;2023-04-01T02:01:46;14.30;66.60
27492;DHT22;14927;51.210;6.838;2023-04-01T02:04:40;14.30;66.70
27492;DHT22;14927;51.210;6.838;2023-04-01T02:07:31;14.30;66.70
27492;DHT22;14927;51.210;6.838;2023-04-01T02:10:18;14.30;67.00
27492;DHT22;14927;51.210;6.838;2023-04-01T02:13:13;14.30;67.20
27492;DHT22;14927;51.210;6.838;2023-04-01T02:16:11;14.30;67.40
27492;DHT22;14927;51.210;6.838;2023-04-01T02:19:20;14.20;67.30
27492;DHT22;14927;51.210;6.838;2023-04-01T02:22:15;14.30;67.20
27492;DHT22;14927;51.210;6.838;2023-04-01T02:25:14;14.20;67.30
27492;DHT22;14927;51.210;6.838;2023-04-01T02:30:51;14.30;67.30
27492;DHT22;14927;51.210;6.838;2023-04-01T02:33:38;14.20;67.50
27492;DHT22;14927;51.210;6.838;2023-04-01T02:36:23;14.20;67.60
27492;DHT22;14927;51.210;6.838;2023-04-01T02:39:09;14.20;67.70
27492;DHT22;14927;51.210;6.838;2023-04-01T02:41:53;14.30;67.80
27492;DHT22;14927;51.210;6.838;2023-04-01T02:44:38;14.30;67.90
27492;DHT22;14927;51.210;6.838;2023-04-01T02:47:23;14.20;67.80
27492;DHT22;14927;51.210;6.838;2023-04-01T02:50:09;14.20;67.90
27492;DHT22;14927;51.210;6.838;2023-04-01T02:52:55;14.20;68.70
27492;DHT22;14927;51.210;6.838;2023-04-01T02:55:42;14.10;68.10
27492;DHT22;14927;51.210;6.838;2023-04-01T03:01:01;14.10;68.40
27492;DHT22;14927;51.210;6.838;2023-04-01T03:03:47;14.10;68.50
27492;DHT22;14927;51.210;6.838;2023-04-01T03:06:31;14.10;68.50
27492;DHT22;14927;51.210;6.838;2023-04-01T03:09:16;14.10;68.50
27492;DHT22;14927;51.210;6.838;2023-04-01T03:12:03;14.00;68.00
27492;DHT22;14927;51.210;6.838;2023-04-01T03:14:47;14.00;68.20
27492;DHT22;14927;51.210;6.838;2023-04-01T03:17:32;14.00;69.10
27492;DHT22;14927;51.210;6.838;2023-04-01T03:20:17;14.00;68.40
27492;DHT22;14927;51.210;6.838;2023-04-01T03:23:01;14.00;68.50
27492;DHT22;14927;51.210;6.838;2023-04-01T03:25:47;14.00;68.30
27492;DHT22;14927;51.210;6.838;2023-04-01T03:28:32;14.00;68.30
27492;DHT22;14927;51.210;6.838;2023-04-01T03:31:16;14.00;68.40
27492;DHT22;14927;51.210;6.838;2023-04-01T03:34:01;14.00;68.40
27492;DHT22;14927;51.210;6.838;2023-04-01T03:36:46;14.00;68.50
27492;DHT22;14927;51.210;6.838;2023-04-01T03:39:31;14.00;68.40
27492;DHT22;14927;51.210;6.838;2023-04-01T03:42:16;14.00;68.40
27492;DHT22;14927;51.210;6.838;2023-04-01T03:45:03;14.00;68.40
27492;DHT22;14927;51.210;6.838;2023-04-01T03:50:25;14.00;68.50
27492;DHT22;14927;51.210;6.838;2023-04-01T03:53:10;14.00;68.50
27492;DHT22;14927;51.210;6.838;2023-04-01T03:55:55;14.00;68.70
27492;DHT22;14927;51.210;6.838;2023-04-01T03:58:41;14.00;68.80
27492;DHT22;14927;51.210;6.838;2023-04-01T04:01:25;14.00;68.90
27492;DHT22;14927;51.210;6.838;2023-04-01T04:04:11;14.00;68.90
27492;DHT22;14927;51.210;6.838;2023-04-01T04:06:57;14.00;68.80
27492;DHT22;14927;51.210;6.838;2023-04-01T04:09:41;14.00;68.90
27492;DHT22;14927;51.210;6.838;2023-04-01T04:12:26;14.00;68.90
27492;DHT22;14927;51.210;6.838;2023-04-01T04:15:11;14.00;69.00
27492;DHT22;14927;51.210;6.838;2023-04-01T04:17:55;14.00;69.00
27492;DHT22;14927;51.210;6.838;2023-04-01T04:20:45;14.00;69.10
27492;DHT22;14927;51.210;6.838;2023-04-01T04:23:33;14.00;69.40
27492;DHT22;14927;51.210;6.838;2023-04-01T04:26:18;14.00;69.30
27492;DHT22;14927;51.210;6.838;2023-04-01T04:29:03;14.00;69.30
27492;DHT22;14927;51.210;6.838;2023-04-01T04:31:48;14.00;69.40
27492;DHT22;14927;51.210;6.838;2023-04-01T04:34:32;14.00;69.50
27492;DHT22;14927;51.210;6.838;2023-04-01T04:37:17;14.00;69.50
27492;DHT22;14927;51.210;6.838;2023-04-01T04:40:02;14.00;69.60
27492;DHT22;14927;51.210;6.838;2023-04-01T04:42:47;14.00;69.70
27492;DHT22;14927;51.210;6.838;2023-04-01T04:45:32;14.00;69.70
27492;DHT22;14927;51.210;6.838;2023-04-01T04:48:17;14.10;69.70
27492;DHT22;14927;51.210;6.838;2023-04-01T04:51:04;14.00;69.60
27492;DHT22;14927;51.210;6.838;2023-04-01T04:53:50;14.10;69.70
27492;DHT22;14927;51.210;6.838;2023-04-01T04:56:35;14.00;69.80
27492;DHT22;14927;51.210;6.838;2023-04-01T04:59:20;14.30;70.10
27492;DHT22;14927;51.210;6.838;2023-04-01T05:02:06;14.00;70.10
27492;DHT22;14927;51.210;6.838;2023-04-01T05:04:51;14.00;70.20
27492;DHT22;14927;51.210;6.838;2023-04-01T05:07:36;14.00;70.20
27492;DHT22;14927;51.210;6.838;2023-04-01T05:10:20;14.00;70.20
27492;DHT22;14927;51.210;6.838;2023-04-01T05:13:05;14.00;70.20
27492;DHT22;14927;51.210;6.838;2023-04-01T05:15:51;14.00;70.30
27492;DHT22;14927;51.210;6.838;2023-04-01T05:18:36;14.00;70.40
27492;DHT22;14927;51.210;6.838;2023-04-01T05:21:21;14.00;71.30
27492;DHT22;14927;51.210;6.838;2023-04-01T05:24:08;14.00;70.60
27492;DHT22;14927;51.210;6.838;2023-04-01T05:26:54;14.00;70.70
27492;DHT22;14927;51.210;6.838;2023-04-01T05:29:38;14.00;70.70
27492;DHT22;14927;51.210;6.838;2023-04-01T05:32:23;14.00;70.70
27492;DHT22;14927;51.210;6.838;2023-04-01T05:35:08;14.00;70.70
27492;DHT22;14927;51.210;6.838;2023-04-01T05:37:54;14.00;70.90
27492;DHT22;14927;51.210;6.838;2023-04-01T05:40:39;14.00;70.80
27492;DHT22;14927;51.210;6.838;2023-04-01T05:43:24;14.00;70.80
27492;DHT22;14927;51.210;6.838;2023-04-01T05:46:08;14.00;70.90
27492;DHT22;14927;51.210;6.838;2023-04-01T05:48:53;14.00;70.90
27492;DHT22;14927;51.210;6.838;2023-04-01T05:51:38;14.00;70.90
27492;DHT22;14927;51.210;6.838;2023-04-01T05:54:23;14.00;71.00
27492;DHT22;14927;51.210;6.838;2023-04-01T05:57:08;14.00;71.00
27492;DHT22;14927;51.210;6.838;2023-04-01T05:59:52;14.00;71.10
27492;DHT22;14927;51.210;6.838;2023-04-01T06:02:37;14.00;71.10
27492;DHT22;14927;51.210;6.838;2023-04-01T06:05:26;14.00;71.10
27492;DHT22;14927;51.210;6.838;2023-04-01T06:08:17;14.00;71.30
27492;DHT22;14927;51.210;6.838;2023-04-01T06:11:37;13.90;71.30
27492;DHT22;14927;51.210;6.838;2023-04-01T06:24:06;14.00;71.30
27492;DHT22;14927;51.210;6.838;2023-04-01T06:27:07;14.00;71.80
27492;DHT22;14927;51.210;6.838;2023-04-01T06:30:38;14.00;71.40
27492;DHT22;14927;51.210;6.838;2023-04-01T06:40:02;14.00;72.00
27492;DHT22;14927;51.210;6.838;2023-04-01T06:43:17;14.00;72.00
27492;DHT22;14927;51.210;6.838;2023-04-01T06:46:32;14.00;71.60
27492;DHT22;14927;51.210;6.838;2023-04-01T06:56:20;14.00;71.50
27492;DHT22;14927;51.210;6.838;2023-04-01T06:59:13;14.00;71.40
27492;DHT22;14927;51.210;6.838;2023-04-01T07:02:03;14.00;71.70
27492;DHT22;14927;51.210;6.838;2023-04-01T07:04:56;14.00;71.60
27492;DHT22;14927;51.210;6.838;2023-04-01T07:07:46;14.00;71.70
27492;DHT22;14927;51.210;6.838;2023-04-01T07:13:54;14.00;72.00
27492;DHT22;14927;51.210;6.838;2023-04-01T07:16:53;14.10;72.20
27492;DHT22;14927;51.210;6.838;2023-04-01T07:20:23;14.00;72.10
27492;DHT22;14927;51.210;6.838;2023-04-01T07:23:20;14.10;72.20
27492;DHT22;14927;51.210;6.838;2023-04-01T07:26:22;14.10;72.10
27492;DHT22;14927;51.210;6.838;2023-04-01T07:29:13;14.10;71.90
27492;DHT22;14927;51.210;6.838;2023-04-01T07:32:22;14.10;72.70
27492;DHT22;14927;51.210;6.838;2023-04-01T07:35:33;14.10;72.20
27492;DHT22;14927;51.210;6.838;2023-04-01T07:41:52;14.20;72.10
27492;DHT22;14927;51.210;6.838;2023-04-01T07:48:27;14.20;71.70
27492;DHT22;14927;51.210;6.838;2023-04-01T07:58:10;14.30;72.00
27492;DHT22;14927;51.210;6.838;2023-04-01T08:01:04;14.20;71.40
27492;DHT22;14927;51.210;6.838;2023-04-01T08:04:12;14.30;71.50
27492;DHT22;14927;51.210;6.838;2023-04-01T08:07:18;14.30;71.80
27492;DHT22;14927;51.210;6.838;2023-04-01T08:17:24;14.30;71.40
27492;DHT22;14927;51.210;6.838;2023-04-01T08:23:36;14.30;72.00
27492;DHT22;14927;51.210;6.838;2023-04-01T08:26:39;14.40;72.10
27492;DHT22;14927;51.210;6.838;2023-04-01T08:29:36;14.40;71.90
27492;DHT22;14927;51.210;6.838;2023-04-01T08:32:30;14.40;71.80
27492;DHT22;14927;51.210;6.838;2023-04-01T08:39:03;14.50;72.10
27492;DHT22;14927;51.210;6.838;2023-04-01T08:42:04;14.50;71.60
27492;DHT22;14927;51.210;6.838;2023-04-01T08:51:15;14.50;71.80
27492;DHT22;14927;51.210;6.838;2023-04-01T08:54:22;14.50;71.40
27492;DHT22;14927;51.210;6.838;2023-04-01T09:01:00;14.60;71.50
27492;DHT22;14927;51.210;6.838;2023-04-01T09:04:23;14.60;71.40
27492;DHT22;14927;51.210;6.838;2023-04-01T09:20:31;14.60;71.20
27492;DHT22;14927;51.210;6.838;2023-04-01T09:30:34;14.70;71.10
27492;DHT22;14927;51.210;6.838;2023-04-01T09:34:06;14.70;71.00
27492;DHT22;14927;51.210;6.838;2023-04-01T09:40:17;14.70;70.90
27492;DHT22;14927;51.210;6.838;2023-04-01T09:50:39;14.70;71.90
27492;DHT22;14927;51.210;6.838;2023-04-01T10:33:50;14.80;71.10
27492;DHT22;14927;51.210;6.838;2023-04-01T10:56:59;14.90;71.20
27492;DHT22;14927;51.210;6.838;2023-04-01T11:13:49;15.00;71.10
27492;DHT22;14927;51.210;6.838;2023-04-01T11:29:41;15.10;72.10
27492;DHT22;14927;51.210;6.838;2023-04-01T11:33:00;15.10;71.10
27492;DHT22;14927;51.210;6.838;2023-04-01T11:36:03;15.10;71.10
27492;DHT22;14927;51.210;6.838;2023-04-01T11:39:24;15.10;70.80
27492;DHT22;14927;51.210;6.838;2023-04-01T11:48:27;15.10;70.80
27492;DHT22;14927;51.210;6.838;2023-04-01T11:58:48;15.20;70.50
27492;DHT22;14927;51.210;6.838;2023-04-01T12:01:43;15.20;70.90
27492;DHT22;14927;51.210;6.838;2023-04-01T12:07:49;15.20;70.20
27492;DHT22;14927;51.210;6.838;2023-04-01T12:11:12;15.20;70.70
27492;DHT22;14927;51.210;6.838;2023-04-01T12:14:27;15.20;70.70
27492;DHT22;14927;51.210;6.838;2023-04-01T12:20:50;15.20;70.40
27492;DHT22;14927;51.210;6.838;2023-04-01T12:23:57;15.20;70.40
27492;DHT22;14927;51.210;6.838;2023-04-01T12:30:21;15.30;70.60
27492;DHT22;14927;51.210;6.838;2023-04-01T12:33:59;15.30;70.30
27492;DHT22;14927;51.210;6.838;2023-04-01T12:36:59;15.30;70.40
27492;DHT22;14927;51.210;6.838;2023-04-01T13:06:42;15.40;70.20
27492;DHT22;14927;51.210;6.838;2023-04-01T13:33:40;15.50;69.50
27492;DHT22;14927;51.210;6.838;2023-04-01T13:36:56;15.60;69.50
27492;DHT22;14927;51.210;6.838;2023-04-01T13:43:34;15.60;69.30
27492;DHT22;14927;51.210;6.838;2023-04-01T13:50:07;15.60;69.40
27492;DHT22;14927;51.210;6.838;2023-04-01T13:56:42;15.60;68.90
27492;DHT22;14927;51.210;6.838;2023-04-01T14:02:43;15.60;68.90
27492;DHT22;14927;51.210;6.838;2023-04-01T14:09:05;15.60;68.90
27492;DHT22;14927;51.210;6.838;2023-04-01T14:21:59;15.60;68.70
27492;DHT22;14927;51.210;6.838;2023-04-01T14:25:17;15.70;68.80
27492;DHT22;14927;51.210;6.838;2023-04-01T14:28:29;15.60;68.70
27492;DHT22;14927;51.210;6.838;2023-04-01T14:37:55;15.70;68.70
27492;DHT22;14927;51.210;6.838;2023-04-01T14:41:20;15.70;68.60
27492;DHT22;14927;51.210;6.838;2023-04-01T14:50:55;15.70;68.50
27492;DHT22;14927;51.210;6.838;2023-04-01T14:53:51;15.60;68.40
27492;DHT22;14927;51.210;6.838;2023-04-01T14:56:47;15.60;68.60
27492;DHT22;14927;51.210;6.838;2023-04-01T14:59:49;15.60;68.60
27492;DHT22;14927;51.210;6.838;2023-04-01T15:09:02;15.70;68.50
27492;DHT22;14927;51.210;6.838;2023-04-01T15:18:30;15.70;67.70
27492;DHT22;14927;51.210;6.838;2023-04-01T15:21:41;15.70;67.90
27492;DHT22;14927;51.210;6.838;2023-04-01T15:28:24;15.70;68.50
27492;DHT22;14927;51.210;6.838;2023-04-01T15:37:45;15.60;68.70
27492;DHT22;14927;51.210;6.838;2023-04-01T15:44:00;15.60;68.40
27492;DHT22;14927;51.210;6.838;2023-04-01T15:46:48;15.60;68.20
27492;DHT22;14927;51.210;6.838;2023-04-01T15:49:46;15.60;68.20
27492;DHT22;14927;51.210;6.838;2023-04-01T15:53:40;15.60;68.20
27492;DHT22;14927;51.210;6.838;2023-04-01T16:06:32;15.50;68.60
27492;DHT22;14927;51.210;6.838;2023-04-01T16:10:03;15.40;68.80
27492;DHT22;14927;51.210;6.838;2023-04-01T16:13:24;15.40;68.80
27492;DHT22;14927;51.210;6.838;2023-04-01T16:16:27;15.40;68.80
27492;DHT22;14927;51.210;6.838;2023-04-01T16:20:17;15.40;69.10
27492;DHT22;14927;51.210;6.838;2023-04-01T16:23:03;15.40;69.30
27492;DHT22;14927;51.210;6.838;2023-04-01T16:29:46;15.40;69.10
27492;DHT22;14927;51.210;6.838;2023-04-01T16:33:01;15.40;69.10
27492;DHT22;14927;51.210;6.838;2023-04-01T16:36:08;15.30;69.10
27492;DHT22;14927;51.210;6.838;2023-04-01T16:42:20;15.10;69.20
27492;DHT22;14927;51.210;6.838;2023-04-01T16:47:54;15.30;69.40
27492;DHT22;14927;51.210;6.838;2023-04-01T16:50:59;15.30;69.80
27492;DHT22;14927;51.210;6.838;2023-04-01T16:53:52;15.30;69.90
27492;DHT22;14927;51.210;6.838;2023-04-01T16:56:54;15.30;69.60
27492;DHT22;14927;51.210;6.838;2023-04-01T17:02:49;15.30;70.10
27492;DHT22;14927;51.210;6.838;2023-04-01T17:15:29;15.20;70.00
27492;DHT22;14927;51.210;6.838;2023-04-01T17:22:16;15.20;70.10
27492;DHT22;14927;51.210;6.838;2023-04-01T17:28:37;15.20;70.10
27492;DHT22;14927;51.210;6.838;2023-04-01T17:35:01;15.20;70.20
27492;DHT22;14927;51.210;6.838;2023-04-01T17:47:49;15.10;69.90
27492;DHT22;14927;51.210;6.838;2023-04-01T17:51:17;15.10;70.00
27492;DHT22;14927;51.210;6.838;2023-04-01T17:54:26;15.10;70.40
27492;DHT22;14927;51.210;6.838;2023-04-01T17:57:54;15.00;70.20
27492;DHT22;14927;51.210;6.838;2023-04-01T18:04:29;15.00;70.50
27492;DHT22;14927;51.210;6.838;2023-04-01T18:07:29;15.00;70.70
27492;DHT22;14927;51.210;6.838;2023-04-01T18:10:57;15.00;70.40
27492;DHT22;14927;51.210;6.838;2023-04-01T18:23:45;14.90;70.40
27492;DHT22;14927;51.210;6.838;2023-04-01T18:26:38;14.90;70.60
27492;DHT22;14927;51.210;6.838;2023-04-01T18:29:48;15.00;70.70
27492;DHT22;14927;51.210;6.838;2023-04-01T18:32:57;14.90;70.90
27492;DHT22;14927;51.210;6.838;2023-04-01T18:49:29;14.90;70.50
27492;DHT22;14927;51.210;6.838;2023-04-01T18:52:34;14.80;70.40
27492;DHT22;14927;51.210;6.838;2023-04-01T18:55:40;15.00;70.70
27492;DHT22;14927;51.210;6.838;2023-04-01T18:58:46;14.80;70.90
27492;DHT22;14927;51.210;6.838;2023-04-01T19:05:00;14.70;70.90
27492;DHT22;14927;51.210;6.838;2023-04-01T19:08:31;14.70;71.30
27492;DHT22;14927;51.210;6.838;2023-04-01T19:15:14;14.50;71.20
27492;DHT22;14927;51.210;6.838;2023-04-01T19:18:31;14.80;71.10
27492;DHT22;14927;51.210;6.838;2023-04-01T19:21:41;14.70;71.20
27492;DHT22;14927;51.210;6.838;2023-04-01T19:24:50;14.70;71.30
27492;DHT22;14927;51.210;6.838;2023-04-01T19:31:53;14.70;71.40
27492;DHT22;14927;51.210;6.838;2023-04-01T19:37:51;14.70;71.20
27492;DHT22;14927;51.210;6.838;2023-04-01T19:41:08;14.60;71.30
27492;DHT22;14927;51.210;6.838;2023-04-01T19:46:58;14.60;71.30
27492;DHT22;14927;51.210;6.838;2023-04-01T19:52:46;14.40;71.20
27492;DHT22;14927;51.210;6.838;2023-04-01T19:55:52;14.40;71.20
27492;DHT22;14927;51.210;6.838;2023-04-01T20:02:26;14.60;71.30
27492;DHT22;14927;51.210;6.838;2023-04-01T20:09:03;14.60;71.60
27492;DHT22;14927;51.210;6.838;2023-04-01T20:15:41;14.60;71.60
27492;DHT22;14927;51.210;6.838;2023-04-01T20:21:46;14.60;71.60
27492;DHT22;14927;51.210;6.838;2023-04-01T20:24:37;14.60;71.60
27492;DHT22;14927;51.210;6.838;2023-04-01T20:27:33;14.60;71.70
27492;DHT22;14927;51.210;6.838;2023-04-01T20:43:22;14.50;71.80
27492;DHT22;14927;51.210;6.838;2023-04-01T20:50:12;14.50;71.50
27492;DHT22;14927;51.210;6.838;2023-04-01T21:00:31;14.50;71.90
27492;DHT22;14927;51.210;6.838;2023-04-01T21:04:04;14.40;72.10
27492;DHT22;14927;51.210;6.838;2023-04-01T21:13:45;14.40;72.40
27492;DHT22;14927;51.210;6.838;2023-04-01T21:27:23;14.70;72.50
27492;DHT22;14927;51.210;6.838;2023-04-01T21:40:23;14.50;71.90
27492;DHT22;14927;51.210;6.838;2023-04-01T21:44:02;14.30;71.60
27492;DHT22;14927;51.210;6.838;2023-04-01T21:50:39;14.30;71.40
27492;DHT22;14927;51.210;6.838;2023-04-01T21:54:03;14.30;71.40
27492;DHT22;14927;51.210;6.838;2023-04-01T22:09:00;14.20;71.50
27492;DHT22;14927;51.210;6.838;2023-04-01T22:11:58;14.20;71.50
27492;DHT22;14927;51.210;6.838;2023-04-01T22:15:08;14.20;71.30
27492;DHT22;14927;51.210;6.838;2023-04-01T22:28:27;14.00;70.50
27492;DHT22;14927;51.210;6.838;2023-04-01T22:31:22;14.10;70.50
27492;DHT22;14927;51.210;6.838;2023-04-01T22:34:44;14.00;70.40
27492;DHT22;14927;51.210;6.838;2023-04-01T22:44:27;13.90;70.40
27492;DHT22;14927;51.210;6.838;2023-04-01T22:57:47;13.70;69.80
27492;DHT22;14927;51.210;6.838;2023-04-01T23:00:42;13.70;69.70
27492;DHT22;14927;51.210;6.838;2023-04-01T23:03:40;13.70;69.80
27492;DHT22;14927;51.210;6.838;2023-04-01T23:06:29;13.60;69.80
27492;DHT22;14927;51.210;6.838;2023-04-01T23:09:23;13.60;69.80
27492;DHT22;14927;51.210;6.838;2023-04-01T23:12:14;13.60;69.90
27492;DHT22;14927;51.210;6.838;2023-04-01T23:15:00;13.50;69.80
27492;DHT22;14927;51.210;6.838;2023-04-01T23:18:34;13.50;69.80
27492;DHT22;14927;51.210;6.838;2023-04-01T23:27:36;13.40;69.70
27492;DHT22;14927;51.210;6.838;2023-04-01T23:33:29;13.30;70.00
27492;DHT22;14927;51.210;6.838;2023-04-01T23:36:15;13.30;70.00
27492;DHT22;14927;51.210;6.838;2023-04-01T23:39:04;13.30;70.00
27492;DHT22;14927;51.210;6.838;2023-04-01T23:45:15;13.20;70.00
27492;DHT22;14927;51.210;6.838;2023-04-01T23:48:01;13.20;70.00
27492;DHT22;14927;51.210;6.838;2023-04-01T23:50:47;13.20;69.90
27492;DHT22;14927;51.210;6.838;2023-04-01T23:53:35;13.20;69.80
27492;DHT22;14927;51.210;6.838;2023-04-01T23:56:38;13.10;69.80
27492;DHT22;14927;51.210;6.838;2023-04-01T23:59:36;13.10;69.80
